createdAt,value
2019-01-10T00:02:08.236Z,87.06
2019-01-10T00:04:38.857Z,86.95
2019-01-10T00:07:09.412Z,86.83
2019-01-10T00:09:39.869Z,86.54
2019-01-10T00:12:10.311Z,86.77
2019-01-10T00:14:40.778Z,86.82
2019-01-10T00:17:11.171Z,86.64
2019-01-10T00:19:41.561Z,86.61
2019-01-10T00:22:11.936Z,86.48
2019-01-10T00:24:42.323Z,86.33
2019-01-10T00:27:13.426Z,86.20
2019-01-10T00:29:45.702Z,86.33
2019-01-10T00:32:17.439Z,86.15
2019-01-10T00:34:48.211Z,86.14
2019-01-10T00:37:19.256Z,85.96
2019-01-10T00:39:50.564Z,86.06
2019-01-10T00:42:28.944Z,86.05
2019-01-10T00:44:59.876Z,85.77
2019-01-10T00:47:30.821Z,85.89
2019-01-10T00:50:01.828Z,85.93
2019-01-10T00:52:36.424Z,85.81
2019-01-10T00:55:12.421Z,85.85
2019-01-10T00:57:44.212Z,85.84
2019-01-10T01:00:21.376Z,85.69
2019-01-10T01:02:51.834Z,85.80
2019-01-10T01:05:22.699Z,85.87
2019-01-10T01:07:55.148Z,85.85
2019-01-10T01:10:28.041Z,85.69
2019-01-10T01:13:04.048Z,85.85
2019-01-10T01:15:37.080Z,85.73
2019-01-10T01:18:07.608Z,85.61
2019-01-10T01:20:37.939Z,85.61
2019-01-10T01:23:08.208Z,85.68
2019-01-10T01:25:38.919Z,85.66
2019-01-10T01:28:09.260Z,85.62
2019-01-10T01:30:39.588Z,85.65
2019-01-10T01:33:10.480Z,85.62
2019-01-10T01:35:40.789Z,85.70
2019-01-10T01:38:11.146Z,85.56
2019-01-10T01:40:41.968Z,85.60
2019-01-10T01:43:12.892Z,85.63
2019-01-10T01:45:48.126Z,85.57
2019-01-10T01:48:18.556Z,85.35
2019-01-10T01:50:49.093Z,85.61
2019-01-10T01:53:19.467Z,85.59
2019-01-10T01:55:49.890Z,85.39
2019-01-10T01:58:20.286Z,85.38
2019-01-10T02:00:51.206Z,85.36
2019-01-10T02:03:21.708Z,85.34
2019-01-10T02:05:52.194Z,85.50
2019-01-10T02:08:22.536Z,85.33
2019-01-10T02:10:53.108Z,85.46
2019-01-10T02:13:23.454Z,85.41
2019-01-10T02:15:54.311Z,85.44
2019-01-10T02:18:24.680Z,85.49
2019-01-10T02:20:55.126Z,85.31
2019-01-10T02:23:25.729Z,85.35
2019-01-10T02:25:56.099Z,85.62
2019-01-10T02:28:26.512Z,85.38
2019-01-10T02:30:56.842Z,85.28
2019-01-10T02:33:27.307Z,85.49
2019-01-10T02:35:57.669Z,85.52
2019-01-10T02:38:28.118Z,85.68
2019-01-10T02:40:58.395Z,85.84
2019-01-10T02:43:28.791Z,85.72
2019-01-10T02:45:59.181Z,85.87
2019-01-10T02:48:29.837Z,85.79
2019-01-10T02:51:02.093Z,86.05
2019-01-10T02:53:32.373Z,86.11
2019-01-10T02:56:03.126Z,86.29
2019-01-10T02:58:34.561Z,86.39
2019-01-10T03:01:05.637Z,86.45
2019-01-10T03:03:35.953Z,86.61
2019-01-10T03:06:06.353Z,86.83
2019-01-10T03:08:37.304Z,86.54
2019-01-10T03:11:07.664Z,86.65
2019-01-10T03:13:38.341Z,86.68
2019-01-10T03:16:09.491Z,86.70
2019-01-10T03:18:40.226Z,86.89
2019-01-10T03:21:10.709Z,86.85
2019-01-10T03:23:41.059Z,86.93
2019-01-10T03:26:11.988Z,86.76
2019-01-10T03:28:42.735Z,86.72
2019-01-10T03:31:13.413Z,86.66
2019-01-10T03:33:44.273Z,86.70
2019-01-10T03:36:14.806Z,86.82
2019-01-10T03:38:45.207Z,86.66
2019-01-10T03:41:16.097Z,86.71
2019-01-10T03:43:47.712Z,86.70
2019-01-10T03:46:18.167Z,86.86
2019-01-10T03:48:48.547Z,86.57
2019-01-10T03:51:18.878Z,86.61
2019-01-10T03:53:49.254Z,86.69
2019-01-10T03:56:19.567Z,86.72
2019-01-10T03:58:50.262Z,86.83
2019-01-10T04:01:20.601Z,86.72
2019-01-10T04:03:51.337Z,86.80
2019-01-10T04:06:21.746Z,86.80
2019-01-10T04:08:52.400Z,86.84
2019-01-10T04:11:22.917Z,86.58
2019-01-10T04:13:57.533Z,86.58
2019-01-10T04:16:26.689Z,86.72
2019-01-10T04:19:17.287Z,86.75
2019-01-10T04:21:47.988Z,86.61
2019-01-10T04:24:18.852Z,86.77
2019-01-10T04:26:49.425Z,86.80
2019-01-10T04:29:19.842Z,86.73
2019-01-10T04:31:50.228Z,86.81
2019-01-10T04:34:20.887Z,86.74
2019-01-10T04:36:51.286Z,86.87
2019-01-10T04:39:21.724Z,86.86
2019-01-10T04:41:52.204Z,86.86
2019-01-10T04:44:22.543Z,86.70
2019-01-10T04:46:53.507Z,86.52
2019-01-10T04:49:24.362Z,86.56
2019-01-10T04:51:54.696Z,86.56
2019-01-10T04:54:25.460Z,86.66
2019-01-10T04:56:55.748Z,86.34
2019-01-10T04:59:26.121Z,86.37
2019-01-10T05:01:56.408Z,86.45
2019-01-10T05:04:26.911Z,86.27
2019-01-10T05:06:57.185Z,86.31
2019-01-10T05:09:27.498Z,86.25
2019-01-10T05:11:57.899Z,87.75
2019-01-10T05:14:28.285Z,87.64
2019-01-10T05:16:58.627Z,87.32
2019-01-10T05:19:28.996Z,86.74
2019-01-10T05:21:59.325Z,86.53
2019-01-10T05:24:29.708Z,86.50
2019-01-10T05:27:00.002Z,86.38
2019-01-10T05:29:31.234Z,86.50
2019-01-10T05:32:02.638Z,86.39
2019-01-10T05:34:33.105Z,86.52
2019-01-10T05:37:06.423Z,86.65
2019-01-10T05:39:36.732Z,86.67
2019-01-10T05:42:08.179Z,86.67
2019-01-10T05:44:38.511Z,86.65
2019-01-10T05:47:08.925Z,86.79
2019-01-10T05:49:39.303Z,86.94
2019-01-10T05:52:12.554Z,86.92
2019-01-10T05:54:43.042Z,86.95
2019-01-10T05:57:13.393Z,86.97
2019-01-10T05:59:43.892Z,87.21
2019-01-10T06:02:14.754Z,87.37
2019-01-10T06:04:45.091Z,87.63
2019-01-10T06:07:15.470Z,87.65
2019-01-10T06:09:45.921Z,87.73
2019-01-10T06:12:16.764Z,87.78
2019-01-10T06:14:47.255Z,87.76
2019-01-10T06:17:17.619Z,87.76
2019-01-10T06:19:48.144Z,87.79
2019-01-10T06:22:18.441Z,87.79
2019-01-10T06:24:48.841Z,87.91
2019-01-10T06:27:19.241Z,87.87
2019-01-10T06:29:49.540Z,87.83
2019-01-10T06:32:19.995Z,87.81
2019-01-10T06:34:50.440Z,87.73
2019-01-10T06:37:21.234Z,87.68
2019-01-10T06:39:51.563Z,87.62
2019-01-10T06:42:22.080Z,87.55
2019-01-10T06:44:53.293Z,87.54
2019-01-10T06:47:23.737Z,87.46
2019-01-10T06:49:54.044Z,87.34
2019-01-10T06:52:52.507Z,87.28
2019-01-10T06:55:22.910Z,87.19
2019-01-10T06:57:53.294Z,87.12
2019-01-10T07:00:25.360Z,87.02
2019-01-10T07:03:04.875Z,87.14
2019-01-10T07:05:35.161Z,87.05
2019-01-10T07:08:05.597Z,86.84
2019-01-10T07:10:36.130Z,86.61
2019-01-10T07:13:06.726Z,86.53
2019-01-10T07:15:39.171Z,85.95
2019-01-10T07:18:09.234Z,85.51
2019-01-10T07:20:41.068Z,85.31
2019-01-10T07:23:11.562Z,85.15
2019-01-10T07:25:42.021Z,85.07
2019-01-10T07:28:26.108Z,85.05
2019-01-10T07:31:00.667Z,85.13
2019-01-10T07:33:32.284Z,84.73
2019-01-10T07:36:04.603Z,84.87
2019-01-10T07:38:34.954Z,84.71
2019-01-10T07:41:05.270Z,84.92
2019-01-10T07:43:39.366Z,84.87
2019-01-10T07:46:10.739Z,84.22
2019-01-10T07:48:41.867Z,83.57
2019-01-10T07:51:21.394Z,83.83
2019-01-10T07:53:52.487Z,84.43
2019-01-10T07:56:23.989Z,83.93
2019-01-10T07:58:55.870Z,84.08
2019-01-10T08:01:26.577Z,83.82
2019-01-10T08:03:57.059Z,83.25
2019-01-10T08:06:28.082Z,83.30
2019-01-10T08:08:59.953Z,83.26
2019-01-10T08:11:30.448Z,83.26
2019-01-10T08:14:01.019Z,82.15
2019-01-10T08:16:31.803Z,81.03
2019-01-10T08:19:22.641Z,81.64
2019-01-10T08:21:53.080Z,81.43
2019-01-10T08:24:24.666Z,81.27
2019-01-10T08:26:55.177Z,81.42
2019-01-10T08:29:26.057Z,81.68
2019-01-10T08:31:58.773Z,81.82
2019-01-10T08:34:29.143Z,82.04
2019-01-10T08:36:59.595Z,82.36
2019-01-10T08:39:30.567Z,82.43
2019-01-10T08:42:01.163Z,82.65
2019-01-10T08:44:34.210Z,82.25
2019-01-10T08:47:06.230Z,81.68
2019-01-10T08:49:36.651Z,82.35
2019-01-10T08:52:07.141Z,82.15
2019-01-10T08:54:37.450Z,81.75
2019-01-10T08:57:07.844Z,81.27
2019-01-10T08:59:38.788Z,81.83
2019-01-10T09:02:09.168Z,81.65
2019-01-10T09:04:39.448Z,80.80
2019-01-10T09:07:09.837Z,81.32
2019-01-10T09:09:40.226Z,80.54
2019-01-10T09:12:10.594Z,80.94
2019-01-10T09:14:41.099Z,80.81
2019-01-10T09:17:11.531Z,80.60
2019-01-10T09:19:41.897Z,80.36
2019-01-10T09:22:12.595Z,79.83
2019-01-10T09:24:44.168Z,80.10
2019-01-10T09:27:14.664Z,79.75
2019-01-10T09:29:44.999Z,79.42
2019-01-10T09:32:15.986Z,79.28
2019-01-10T09:34:46.338Z,79.05
2019-01-10T09:37:16.646Z,79.94
2019-01-10T09:39:47.630Z,80.80
2019-01-10T09:42:17.929Z,80.81
2019-01-10T09:44:48.397Z,80.58
2019-01-10T09:47:18.708Z,81.17
2019-01-10T09:49:49.809Z,80.21
2019-01-10T09:52:20.498Z,80.83
2019-01-10T09:54:50.815Z,80.79
2019-01-10T09:57:21.828Z,80.55
2019-01-10T09:59:52.366Z,80.61
2019-01-10T10:02:22.684Z,80.83
2019-01-10T10:04:53.061Z,81.07
2019-01-10T10:07:24.098Z,80.82
2019-01-10T10:09:55.093Z,80.96
2019-01-10T10:12:25.506Z,81.38
2019-01-10T10:14:57.034Z,81.17
2019-01-10T10:17:27.410Z,81.51
2019-01-10T10:20:00.544Z,81.28
2019-01-10T10:22:30.880Z,81.39
2019-01-10T10:25:01.292Z,81.00
2019-01-10T10:27:31.960Z,80.64
2019-01-10T10:30:02.728Z,80.49
2019-01-10T10:32:33.624Z,80.12
2019-01-10T10:35:05.320Z,80.08
2019-01-10T10:37:36.036Z,79.22
2019-01-10T10:40:08.465Z,79.59
2019-01-10T10:42:38.859Z,79.88
2019-01-10T10:45:10.205Z,79.98
2019-01-10T10:47:41.120Z,79.75
2019-01-10T10:50:23.432Z,80.28
2019-01-10T10:52:53.756Z,80.19
2019-01-10T10:55:24.040Z,80.77
2019-01-10T10:57:54.512Z,80.81
2019-01-10T11:00:27.347Z,81.07
2019-01-10T11:02:58.021Z,81.03
2019-01-10T11:05:28.671Z,80.40
2019-01-10T11:07:59.006Z,80.79
2019-01-10T11:10:30.983Z,80.54
2019-01-10T11:13:01.848Z,80.78
2019-01-10T11:15:32.172Z,80.82
2019-01-10T11:18:02.621Z,80.68
2019-01-10T11:20:33.050Z,80.87
2019-01-10T11:23:10.512Z,81.05
2019-01-10T11:25:35.720Z,80.04
2019-01-10T11:28:06.218Z,80.52
2019-01-10T11:30:36.610Z,80.01
2019-01-10T11:33:06.896Z,79.85
2019-01-10T11:35:37.696Z,79.30
2019-01-10T11:38:08.180Z,78.89
2019-01-10T11:40:39.136Z,78.84
2019-01-10T11:43:09.661Z,78.90
2019-01-10T11:45:40.098Z,79.48
2019-01-10T11:48:10.841Z,79.24
2019-01-10T11:50:41.299Z,77.71
2019-01-10T11:53:11.761Z,78.35
2019-01-10T11:55:42.138Z,78.12
2019-01-10T11:58:12.558Z,77.73
2019-01-10T12:00:42.886Z,77.92
2019-01-10T12:03:13.585Z,77.70
2019-01-10T12:05:47.838Z,77.97
2019-01-10T12:08:18.673Z,78.17
2019-01-10T12:10:49.290Z,78.56
2019-01-10T12:13:19.650Z,78.30
2019-01-10T12:15:50.002Z,77.78
2019-01-10T12:18:20.442Z,78.23
2019-01-10T12:20:51.995Z,78.48
2019-01-10T12:23:24.243Z,77.00
2019-01-10T12:25:54.585Z,77.09
2019-01-10T12:28:26.641Z,77.17
2019-01-10T12:30:57.084Z,77.63
2019-01-10T12:33:27.460Z,77.00
2019-01-10T12:35:57.755Z,78.27
2019-01-10T12:38:28.213Z,77.62
2019-01-10T12:40:58.610Z,77.40
2019-01-10T12:43:30.258Z,76.59
2019-01-10T12:46:01.194Z,77.72
2019-01-10T12:48:34.707Z,77.01
2019-01-10T12:51:05.476Z,76.93
2019-01-10T12:53:35.775Z,76.48
2019-01-10T12:56:06.441Z,76.21
2019-01-10T12:58:36.751Z,76.70
2019-01-10T13:01:08.043Z,76.36
2019-01-10T13:03:38.365Z,76.24
2019-01-10T13:06:08.824Z,75.02
2019-01-10T13:08:39.203Z,76.03
2019-01-10T13:11:11.168Z,76.10
2019-01-10T13:13:44.576Z,76.17
2019-01-10T13:16:15.283Z,76.26
2019-01-10T13:18:45.715Z,76.64
2019-01-10T13:21:16.064Z,75.66
2019-01-10T13:23:46.495Z,76.11
2019-01-10T13:26:23.743Z,76.01
2019-01-10T13:28:54.149Z,76.85
2019-01-10T13:31:25.532Z,75.41
2019-01-10T13:33:56.012Z,75.26
2019-01-10T13:36:26.828Z,75.79
2019-01-10T13:38:57.184Z,75.70
2019-01-10T13:41:27.611Z,75.75
2019-01-10T13:43:57.945Z,75.51
2019-01-10T13:46:28.642Z,75.67
2019-01-10T13:48:59.520Z,74.29
2019-01-10T13:51:29.866Z,75.25
2019-01-10T13:54:00.292Z,74.52
2019-01-10T13:56:31.101Z,75.17
2019-01-10T13:59:02.070Z,75.44
2019-01-10T14:01:32.388Z,74.80
2019-01-10T14:04:02.772Z,74.26
2019-01-10T14:06:33.631Z,74.47
2019-01-10T14:09:05.055Z,74.77
2019-01-10T14:11:35.491Z,75.46
2019-01-10T14:14:05.958Z,75.46
2019-01-10T14:16:36.529Z,74.77
2019-01-10T14:19:07.211Z,74.93
2019-01-10T14:21:37.979Z,74.27
2019-01-10T14:24:08.457Z,74.11
2019-01-10T14:26:38.791Z,72.96
2019-01-10T14:29:09.311Z,73.90
2019-01-10T14:31:39.676Z,73.77
2019-01-10T14:34:14.192Z,73.93
2019-01-10T14:36:42.845Z,73.53
2019-01-10T14:39:13.672Z,71.83
2019-01-10T14:41:44.433Z,72.63
2019-01-10T14:44:17.346Z,72.52
2019-01-10T14:46:47.739Z,72.31
2019-01-10T14:49:18.128Z,71.11
2019-01-10T14:51:49.143Z,72.55
2019-01-10T14:54:20.015Z,73.02
2019-01-10T14:56:50.469Z,72.68
2019-01-10T14:59:20.750Z,72.57
2019-01-10T15:01:51.247Z,72.61
2019-01-10T15:04:22.325Z,71.38
2019-01-10T15:06:53.147Z,71.53
2019-01-10T15:09:23.925Z,71.53
2019-01-10T15:11:54.282Z,71.39
2019-01-10T15:14:24.695Z,72.42
2019-01-10T15:16:55.101Z,71.56
2019-01-10T15:19:25.747Z,72.78
2019-01-10T15:21:56.148Z,73.51
2019-01-10T15:24:26.508Z,73.15
2019-01-10T15:26:57.235Z,73.71
2019-01-10T15:29:27.666Z,73.49
2019-01-10T15:31:58.185Z,72.56
2019-01-10T15:34:28.604Z,72.67
2019-01-10T15:36:59.052Z,72.90
2019-01-10T15:39:29.866Z,72.49
2019-01-10T15:42:01.683Z,71.74
2019-01-10T15:44:32.453Z,72.47
2019-01-10T15:47:02.749Z,72.81
2019-01-10T15:49:33.684Z,72.27
2019-01-10T15:52:04.688Z,71.84
2019-01-10T15:54:35.017Z,70.88
2019-01-10T15:57:05.865Z,71.36
2019-01-10T16:00:05.373Z,71.28
2019-01-10T16:02:36.283Z,71.10
2019-01-10T16:05:07.102Z,71.09
2019-01-10T16:07:37.491Z,70.80
2019-01-10T16:10:09.075Z,70.12
2019-01-10T16:12:39.485Z,70.59
2019-01-10T16:15:11.968Z,70.51
2019-01-10T16:17:42.375Z,70.67
2019-01-10T16:20:17.271Z,70.24
2019-01-10T16:22:56.218Z,69.72
2019-01-10T16:25:26.684Z,69.87
2019-01-10T16:27:57.017Z,70.88
2019-01-10T16:30:32.337Z,70.94
2019-01-10T16:33:02.655Z,70.86
2019-01-10T16:35:32.949Z,71.22
2019-01-10T16:38:03.933Z,70.67
2019-01-10T16:40:34.286Z,70.47
2019-01-10T16:43:05.212Z,70.30
2019-01-10T16:45:35.864Z,70.90
2019-01-10T16:48:06.606Z,69.98
2019-01-10T16:50:37.092Z,70.75
2019-01-10T16:53:08.071Z,70.31
2019-01-10T16:55:38.499Z,70.74
2019-01-10T16:58:08.822Z,70.45
2019-01-10T17:00:39.281Z,70.46
2019-01-10T17:03:09.629Z,71.50
2019-01-10T17:05:40.019Z,71.32
2019-01-10T17:08:10.471Z,71.28
2019-01-10T17:10:40.841Z,71.33
2019-01-10T17:13:11.364Z,71.36
2019-01-10T17:15:41.777Z,72.11
2019-01-10T17:18:12.170Z,71.84
2019-01-10T17:20:42.552Z,71.73
2019-01-10T17:23:12.916Z,71.68
2019-01-10T17:25:43.531Z,71.52
2019-01-10T17:28:14.006Z,71.64
2019-01-10T17:30:44.324Z,72.28
2019-01-10T17:33:14.690Z,72.46
2019-01-10T17:35:45.598Z,72.47
2019-01-10T17:38:16.507Z,72.66
2019-01-10T17:40:46.910Z,73.04
2019-01-10T17:43:17.350Z,72.92
2019-01-10T17:45:47.808Z,72.90
2019-01-10T17:48:18.132Z,73.34
2019-01-10T17:50:48.555Z,73.31
2019-01-10T17:53:18.955Z,72.97
2019-01-10T17:55:49.315Z,73.78
2019-01-10T17:58:20.304Z,74.15
2019-01-10T18:00:50.636Z,74.07
2019-01-10T18:03:21.090Z,74.11
2019-01-10T18:05:51.679Z,73.88
2019-01-10T18:08:22.052Z,74.28
2019-01-10T18:10:52.845Z,73.77
2019-01-10T18:13:23.192Z,73.51
2019-01-10T18:15:53.583Z,74.49
2019-01-10T18:18:24.002Z,74.78
2019-01-10T18:20:54.395Z,74.46
2019-01-10T18:23:25.130Z,73.82
2019-01-10T18:25:56.189Z,74.29
2019-01-10T18:28:26.523Z,74.21
2019-01-10T18:30:56.970Z,74.02
2019-01-10T18:33:45.338Z,74.31
2019-01-10T18:36:16.347Z,74.67
2019-01-10T18:38:46.796Z,74.84
2019-01-10T18:41:19.411Z,74.08
2019-01-10T18:43:49.885Z,73.91
2019-01-10T18:46:20.287Z,73.67
2019-01-10T18:48:51.176Z,73.86
2019-01-10T18:51:21.535Z,74.07
2019-01-10T18:53:53.834Z,74.21
2019-01-10T18:56:24.162Z,74.11
2019-01-10T18:58:54.597Z,74.48
2019-01-10T19:01:25.218Z,74.26
2019-01-10T19:03:55.662Z,74.23
2019-01-10T19:06:26.081Z,74.40
2019-01-10T19:08:56.513Z,74.58
2019-01-10T19:11:27.095Z,74.73
2019-01-10T19:13:57.417Z,75.25
2019-01-10T19:16:27.747Z,74.92
2019-01-10T19:18:59.795Z,74.96
2019-01-10T19:21:30.563Z,74.81
2019-01-10T19:24:01.147Z,75.15
2019-01-10T19:26:31.527Z,74.83
2019-01-10T19:29:01.890Z,74.86
2019-01-10T19:31:32.382Z,74.40
2019-01-10T19:34:03.065Z,74.57
2019-01-10T19:36:33.571Z,75.24
2019-01-10T19:39:04.290Z,74.49
2019-01-10T19:41:34.711Z,74.59
2019-01-10T19:44:05.273Z,74.86
2019-01-10T19:46:35.863Z,74.93
2019-01-10T19:49:07.825Z,75.16
2019-01-10T19:51:40.269Z,75.08
2019-01-10T19:54:11.027Z,74.64
2019-01-10T19:56:41.570Z,74.75
2019-01-10T19:59:12.509Z,75.37
2019-01-10T20:01:42.995Z,75.04
2019-01-10T20:04:13.437Z,74.44
2019-01-10T20:06:43.749Z,75.17
2019-01-10T20:09:14.188Z,74.47
2019-01-10T20:11:46.812Z,74.37
2019-01-10T20:14:17.381Z,75.30
2019-01-10T20:16:48.314Z,75.05
2019-01-10T20:19:18.962Z,74.96
2019-01-10T20:21:49.511Z,75.04
2019-01-10T20:24:22.216Z,74.99
2019-01-10T20:26:53.002Z,74.58
2019-01-10T20:29:23.741Z,75.02
2019-01-10T20:31:54.150Z,75.15
2019-01-10T20:34:24.554Z,74.71
2019-01-10T20:36:54.927Z,75.01
2019-01-10T20:39:27.886Z,75.43
2019-01-10T20:42:01.834Z,74.82
2019-01-10T20:44:30.479Z,74.66
2019-01-10T20:47:00.932Z,75.39
2019-01-10T20:49:32.404Z,74.70
2019-01-10T20:52:03.403Z,74.67
2019-01-10T20:54:35.923Z,74.74
2019-01-10T20:57:08.176Z,75.27
2019-01-10T20:59:38.584Z,75.04
2019-01-10T21:02:08.923Z,74.93
2019-01-10T21:04:39.279Z,75.22
2019-01-10T21:07:21.000Z,75.64
2019-01-10T21:09:51.791Z,75.25
2019-01-10T21:12:22.324Z,75.35
2019-01-10T21:14:54.345Z,75.67
2019-01-10T21:17:24.872Z,75.37
2019-01-10T21:19:55.303Z,74.91
2019-01-10T21:22:30.826Z,74.80
2019-01-10T21:25:03.333Z,74.78
2019-01-10T21:27:33.915Z,74.70
2019-01-10T21:30:04.500Z,74.23
2019-01-10T21:32:40.711Z,74.04
2019-01-10T21:35:08.081Z,74.43
2019-01-10T21:37:38.592Z,73.74
2019-01-10T21:40:11.673Z,74.30
2019-01-10T21:42:48.418Z,74.33
2019-01-10T21:45:25.322Z,74.61
2019-01-10T21:47:55.729Z,73.16
2019-01-10T21:50:27.635Z,73.17
2019-01-10T21:52:58.906Z,73.26
2019-01-10T21:55:29.244Z,73.77
2019-01-10T21:58:00.201Z,73.76
2019-01-10T22:00:31.907Z,73.47
2019-01-10T22:03:03.210Z,73.57
2019-01-10T22:05:33.928Z,73.70
2019-01-10T22:08:08.314Z,73.68
2019-01-10T22:10:39.002Z,74.10
2019-01-10T22:13:09.706Z,73.20
2019-01-10T22:15:40.174Z,73.86
2019-01-10T22:18:11.105Z,73.36
2019-01-10T22:20:41.850Z,72.77
2019-01-10T22:23:12.738Z,73.38
2019-01-10T22:25:43.137Z,71.43
2019-01-10T22:28:14.080Z,71.25
2019-01-10T22:30:44.386Z,72.17
2019-01-10T22:33:15.226Z,71.85
2019-01-10T22:35:45.789Z,70.31
2019-01-10T22:38:16.344Z,71.70
2019-01-10T22:40:46.818Z,72.08
2019-01-10T22:43:17.248Z,72.03
2019-01-10T22:45:47.648Z,70.42
2019-01-10T22:48:18.453Z,70.24
2019-01-10T22:50:48.820Z,71.68
2019-01-10T22:53:19.262Z,70.12
2019-01-10T22:55:49.671Z,70.94
2019-01-10T22:58:21.267Z,71.36
2019-01-10T23:01:27.836Z,71.22
2019-01-10T23:03:58.910Z,70.68
2019-01-10T23:06:29.219Z,70.76
2019-01-10T23:08:59.512Z,71.59
2019-01-10T23:11:31.640Z,71.05
2019-01-10T23:14:03.230Z,70.77
2019-01-10T23:16:34.888Z,71.43
2019-01-10T23:19:06.784Z,71.60
2019-01-10T23:21:41.531Z,70.56
2019-01-10T23:24:16.600Z,68.77
2019-01-10T23:26:56.631Z,70.61
2019-01-10T23:29:34.337Z,70.87
2019-01-10T23:32:12.123Z,70.14
2019-01-10T23:34:49.631Z,70.92
2019-01-10T23:37:24.240Z,70.82
2019-01-10T23:39:55.481Z,70.01
2019-01-10T23:42:25.788Z,70.29
2019-01-10T23:44:56.291Z,69.14
2019-01-10T23:47:26.688Z,69.18
2019-01-10T23:49:57.664Z,69.25
2019-01-10T23:52:28.330Z,70.43
2019-01-10T23:54:58.681Z,70.50
2019-01-10T23:57:29.623Z,70.22
